createdAt,value
2017-04-08T00:00:33.241Z,75.93
2017-04-08T00:01:31.121Z,71.33
2017-04-08T00:02:30.145Z,70.33
2017-04-08T00:03:28.558Z,70.17
2017-04-08T00:04:26.596Z,71.00
2017-04-08T00:05:24.491Z,74.29
2017-04-08T00:06:22.744Z,73.68
2017-04-08T00:07:20.683Z,75.72
2017-04-08T00:08:18.956Z,75.30
2017-04-08T00:09:17.605Z,75.82
2017-04-08T00:10:15.772Z,71.71
2017-04-08T00:11:14.041Z,76.02
2017-04-08T00:12:11.923Z,75.88
2017-04-08T00:13:10.008Z,74.43
2017-04-08T00:14:08.461Z,72.08
2017-04-08T00:15:06.742Z,75.74
2017-04-08T00:16:05.141Z,76.15
2017-04-08T00:17:03.511Z,76.98
2017-04-08T00:18:01.635Z,74.16
2017-04-08T00:19:00.138Z,77.67
2017-04-08T00:19:58.490Z,74.40
2017-04-08T00:20:56.367Z,71.85
2017-04-08T00:21:54.608Z,73.39
2017-04-08T00:22:52.532Z,73.86
2017-04-08T00:23:50.398Z,74.13
2017-04-08T00:24:48.452Z,73.00
2017-04-08T00:25:46.317Z,74.47
2017-04-08T00:26:44.336Z,70.68
2017-04-08T00:27:42.212Z,70.70
2017-04-08T00:28:40.131Z,72.87
2017-04-08T00:29:38.074Z,75.12
2017-04-08T00:30:35.902Z,74.93
2017-04-08T00:31:33.735Z,70.89
2017-04-08T00:32:31.576Z,75.23
2017-04-08T00:33:29.412Z,72.23
2017-04-08T00:34:27.222Z,72.01
2017-04-08T00:35:25.212Z,74.46
2017-04-08T00:36:23.064Z,72.15
2017-04-08T00:37:21.044Z,74.53
2017-04-08T00:38:18.901Z,71.82
2017-04-08T00:39:16.756Z,71.47
2017-04-08T00:40:14.587Z,70.88
2017-04-08T00:41:12.440Z,73.10
2017-04-08T00:42:11.539Z,74.92
2017-04-08T00:43:10.120Z,73.68
2017-04-08T00:44:08.434Z,74.66
2017-04-08T00:45:06.882Z,72.50
2017-04-08T00:46:05.004Z,71.26
2017-04-08T00:47:03.469Z,73.08
2017-04-08T00:48:01.978Z,73.00
2017-04-08T00:49:00.140Z,72.75
2017-04-08T00:49:58.673Z,71.03
2017-04-08T00:50:57.069Z,71.93
2017-04-08T00:51:55.369Z,72.11
2017-04-08T00:52:53.867Z,72.39
2017-04-08T00:53:52.578Z,70.93
2017-04-08T00:54:51.089Z,70.45
2017-04-08T00:55:49.206Z,70.41
2017-04-08T00:56:47.707Z,70.31
2017-04-08T00:57:46.093Z,74.66
2017-04-08T00:58:44.209Z,72.40
2017-04-08T00:59:42.125Z,73.98
2017-04-08T01:00:45.871Z,74.64
2017-04-08T01:01:44.608Z,75.55
2017-04-08T01:02:42.595Z,74.74
2017-04-08T01:03:40.487Z,72.16
2017-04-08T01:04:38.905Z,72.23
2017-04-08T01:05:37.056Z,74.77
2017-04-08T01:06:36.001Z,74.08
2017-04-08T01:07:34.596Z,76.99
2017-04-08T01:08:33.118Z,75.64
2017-04-08T01:09:31.651Z,74.84
2017-04-08T01:10:30.267Z,74.05
2017-04-08T01:11:28.297Z,75.75
2017-04-08T01:12:26.394Z,71.99
2017-04-08T01:13:24.967Z,73.67
2017-04-08T01:14:23.449Z,74.64
2017-04-08T01:15:21.858Z,74.68
2017-04-08T01:16:20.333Z,74.07
2017-04-08T01:17:19.139Z,74.61
2017-04-08T01:18:17.556Z,74.42
2017-04-08T01:19:15.692Z,75.42
2017-04-08T01:20:13.834Z,74.73
2017-04-08T01:21:12.393Z,75.25
2017-04-08T01:22:10.335Z,74.77
2017-04-08T01:23:08.220Z,73.22
2017-04-08T01:24:06.496Z,72.96
2017-04-08T01:25:04.726Z,75.04
2017-04-08T01:26:03.231Z,74.33
2017-04-08T01:27:01.556Z,75.83
2017-04-08T01:27:59.979Z,75.04
2017-04-08T01:28:57.859Z,75.71
2017-04-08T01:29:56.526Z,75.05
2017-04-08T01:30:55.046Z,74.88
2017-04-08T01:31:53.153Z,74.91
2017-04-08T01:32:51.469Z,74.59
2017-04-08T01:33:50.035Z,73.06
2017-04-08T01:34:48.230Z,74.20
2017-04-08T01:35:46.753Z,72.94
2017-04-08T01:36:45.255Z,72.19
2017-04-08T01:37:43.356Z,71.72
2017-04-08T01:38:41.565Z,71.29
2017-04-08T01:39:39.792Z,70.62
2017-04-08T01:40:38.240Z,70.42
2017-04-08T01:41:36.641Z,73.80
2017-04-08T01:42:35.113Z,74.39
2017-04-08T01:43:33.615Z,72.29
2017-04-08T01:44:31.924Z,73.97
2017-04-08T01:45:30.405Z,73.42
2017-04-08T01:46:29.122Z,74.51
2017-04-08T01:47:27.699Z,74.67
2017-04-08T01:48:30.467Z,75.53
2017-04-08T01:49:31.387Z,76.26
2017-04-08T01:50:29.992Z,76.64
2017-04-08T01:51:32.287Z,76.78
2017-04-08T01:52:30.168Z,75.96
2017-04-08T01:53:28.016Z,75.69
2017-04-08T01:54:26.346Z,75.85
2017-04-08T01:55:24.227Z,75.51
2017-04-08T01:56:22.018Z,75.27
2017-04-08T01:57:19.945Z,74.71
2017-04-08T01:58:18.172Z,74.37
2017-04-08T01:59:16.441Z,75.19
2017-04-08T02:00:14.477Z,75.74
2017-04-08T02:01:12.438Z,74.54
2017-04-08T02:02:10.686Z,74.59
2017-04-08T02:03:08.800Z,76.59
2017-04-08T02:04:06.680Z,75.81
2017-04-08T02:05:05.028Z,76.72
2017-04-08T02:06:10.275Z,74.40
2017-04-08T02:07:16.283Z,75.98
2017-04-08T02:08:15.009Z,72.31
2017-04-08T02:09:12.936Z,74.37
2017-04-08T02:10:10.734Z,71.71
2017-04-08T02:11:08.589Z,74.08
2017-04-08T02:12:06.544Z,76.69
2017-04-08T02:13:04.396Z,77.70
2017-04-08T02:14:02.227Z,76.31
2017-04-08T02:15:00.057Z,78.41
2017-04-08T02:15:57.875Z,77.67
2017-04-08T02:16:55.763Z,78.74
2017-04-08T02:17:53.633Z,78.02
2017-04-08T02:18:51.488Z,77.95
2017-04-08T02:19:49.300Z,76.55
2017-04-08T02:20:47.116Z,77.80
2017-04-08T02:21:45.010Z,77.41
2017-04-08T02:22:42.858Z,77.76
2017-04-08T02:23:40.741Z,76.46
2017-04-08T02:24:38.626Z,77.29
2017-04-08T02:25:36.438Z,75.00
2017-04-08T02:26:34.415Z,74.26
2017-04-08T02:27:32.251Z,75.40
2017-04-08T02:28:30.154Z,73.22
2017-04-08T02:29:28.001Z,76.54
2017-04-08T02:30:25.927Z,76.44
2017-04-08T02:31:23.772Z,78.06
2017-04-08T02:32:21.717Z,77.88
2017-04-08T02:33:19.571Z,75.19
2017-04-08T02:34:17.413Z,76.41
2017-04-08T02:35:15.381Z,73.41
2017-04-08T02:36:13.256Z,76.28
2017-04-08T02:37:11.250Z,75.64
2017-04-08T02:38:09.121Z,75.64
2017-04-08T02:39:08.060Z,72.94
2017-04-08T02:40:07.541Z,72.97
2017-04-08T02:41:05.613Z,72.43
2017-04-08T02:42:03.853Z,72.09
2017-04-08T02:43:02.141Z,71.92
2017-04-08T02:44:00.253Z,74.35
2017-04-08T02:44:58.328Z,74.06
2017-04-08T02:45:56.775Z,74.98
2017-04-08T02:46:54.970Z,72.22
2017-04-08T02:47:53.435Z,71.76
2017-04-08T02:48:54.636Z,71.88
2017-04-08T02:49:54.169Z,72.03
2017-04-08T02:50:52.660Z,71.57
2017-04-08T02:51:50.982Z,71.31
2017-04-08T02:52:49.271Z,71.40
2017-04-08T02:53:47.229Z,77.30
2017-04-08T02:54:45.072Z,78.82
2017-04-08T02:55:42.875Z,76.76
2017-04-08T02:56:40.918Z,77.53
2017-04-08T02:57:38.734Z,79.91
2017-04-08T02:58:36.619Z,78.90
2017-04-08T02:59:34.553Z,78.23
2017-04-08T03:00:32.489Z,79.93
2017-04-08T03:01:30.413Z,80.69
2017-04-08T03:02:28.266Z,80.69
2017-04-08T03:03:26.129Z,81.12
2017-04-08T03:04:24.021Z,79.79
2017-04-08T03:05:21.891Z,79.87
2017-04-08T03:06:19.779Z,80.11
2017-04-08T03:07:17.588Z,79.95
2017-04-08T03:08:15.415Z,80.01
2017-04-08T03:09:13.212Z,79.03
2017-04-08T03:10:11.208Z,78.58
2017-04-08T03:11:09.056Z,77.70
2017-04-08T03:12:06.972Z,79.37
2017-04-08T03:13:04.843Z,78.36
2017-04-08T03:14:02.777Z,78.42
2017-04-08T03:15:00.649Z,78.71
2017-04-08T03:15:58.460Z,78.74
2017-04-08T03:16:56.431Z,79.52
2017-04-08T03:17:54.283Z,80.65
2017-04-08T03:18:52.297Z,80.86
2017-04-08T03:19:50.208Z,79.25
2017-04-08T03:20:48.048Z,77.95
2017-04-08T03:21:45.920Z,77.66
2017-04-08T03:22:43.772Z,77.72
2017-04-08T03:23:41.638Z,77.96
2017-04-08T03:24:39.497Z,78.36
2017-04-08T03:25:37.365Z,77.37
2017-04-08T03:26:35.212Z,76.45
2017-04-08T03:27:33.151Z,76.02
2017-04-08T03:28:31.015Z,78.50
2017-04-08T03:29:28.815Z,78.20
2017-04-08T03:30:26.756Z,77.48
2017-04-08T03:31:24.623Z,77.52
2017-04-08T03:32:22.478Z,77.58
2017-04-08T03:33:20.345Z,76.86
2017-04-08T03:34:18.308Z,76.84
2017-04-08T03:35:16.196Z,76.09
2017-04-08T03:36:14.020Z,75.95
2017-04-08T03:37:11.918Z,77.41
2017-04-08T03:38:09.747Z,75.05
2017-04-08T03:39:07.637Z,76.27
2017-04-08T03:40:05.437Z,75.78
2017-04-08T03:41:03.421Z,77.40
2017-04-08T03:42:01.279Z,77.36
2017-04-08T03:42:59.144Z,77.63
2017-04-08T03:43:57.019Z,77.02
2017-04-08T03:44:54.852Z,77.38
2017-04-08T03:45:52.826Z,76.99
2017-04-08T03:46:50.667Z,76.99
2017-04-08T03:47:48.570Z,77.74
2017-04-08T03:48:46.433Z,77.33
2017-04-08T03:49:44.260Z,77.22
2017-04-08T03:50:42.297Z,76.93
2017-04-08T03:51:40.133Z,77.42
2017-04-08T03:52:37.952Z,75.04
2017-04-08T03:53:35.758Z,74.71
2017-04-08T03:54:33.847Z,73.63
2017-04-08T03:55:31.712Z,73.40
2017-04-08T03:56:29.699Z,74.75
2017-04-08T03:57:27.599Z,75.73
2017-04-08T03:58:25.596Z,74.73
2017-04-08T03:59:23.520Z,75.68
2017-04-08T04:00:21.514Z,77.73
2017-04-08T04:01:19.384Z,75.97
2017-04-08T04:02:17.242Z,77.31
2017-04-08T04:03:15.416Z,75.34
2017-04-08T04:04:13.349Z,77.37
2017-04-08T04:05:11.223Z,77.41
2017-04-08T04:06:09.055Z,78.46
2017-04-08T04:07:06.877Z,79.07
2017-04-08T04:08:04.731Z,79.69
2017-04-08T04:09:02.653Z,79.61
2017-04-08T04:10:00.464Z,78.80
2017-04-08T04:10:58.500Z,79.09
2017-04-08T04:11:56.301Z,80.22
2017-04-08T04:12:54.279Z,80.54
2017-04-08T04:13:52.132Z,80.08
2017-04-08T04:14:49.959Z,77.29
2017-04-08T04:15:47.903Z,76.49
2017-04-08T04:16:48.971Z,75.29
2017-04-08T04:17:46.813Z,76.64
2017-04-08T04:18:44.647Z,73.96
2017-04-08T04:19:42.599Z,73.37
2017-04-08T04:20:40.428Z,72.90
2017-04-08T04:21:38.256Z,72.60
2017-04-08T04:22:36.194Z,72.73
2017-04-08T04:23:33.996Z,73.95
2017-04-08T04:24:31.829Z,76.32
2017-04-08T04:25:29.641Z,76.16
2017-04-08T04:26:27.548Z,78.23
2017-04-08T04:27:25.385Z,79.43
2017-04-08T04:28:23.241Z,80.06
2017-04-08T04:29:21.861Z,80.37
2017-04-08T04:30:19.798Z,80.43
2017-04-08T04:31:17.731Z,80.87
2017-04-08T04:32:15.548Z,81.46
2017-04-08T04:33:13.429Z,81.65
2017-04-08T04:34:11.292Z,81.60
2017-04-08T04:35:09.209Z,81.90
2017-04-08T04:36:07.036Z,81.85
2017-04-08T04:37:04.951Z,81.09
2017-04-08T04:38:02.813Z,80.91
2017-04-08T04:39:00.691Z,80.65
2017-04-08T04:39:58.598Z,80.76
2017-04-08T04:40:56.452Z,80.95
2017-04-08T04:41:54.367Z,79.86
2017-04-08T04:42:52.252Z,80.05
2017-04-08T04:43:50.136Z,80.70
2017-04-08T04:44:48.022Z,81.11
2017-04-08T04:45:45.880Z,80.07
2017-04-08T04:46:43.779Z,80.01
2017-04-08T04:47:41.600Z,78.42
2017-04-08T04:48:39.507Z,76.72
2017-04-08T04:49:37.368Z,75.03
2017-04-08T04:50:35.355Z,74.47
2017-04-08T04:51:33.234Z,74.04
2017-04-08T04:52:31.102Z,74.03
2017-04-08T04:53:29.008Z,73.75
2017-04-08T04:54:26.854Z,73.65
2017-04-08T04:55:24.799Z,73.64
2017-04-08T04:56:22.644Z,73.56
2017-04-08T04:57:20.568Z,73.37
2017-04-08T04:58:18.435Z,73.56
2017-04-08T04:59:16.316Z,73.44
2017-04-08T05:00:14.256Z,73.39
2017-04-08T05:01:12.180Z,73.28
2017-04-08T05:02:10.077Z,74.89
2017-04-08T05:03:07.924Z,75.34
2017-04-08T05:04:05.823Z,78.55
2017-04-08T05:05:03.729Z,80.28
2017-04-08T05:06:01.616Z,80.53
2017-04-08T05:06:59.477Z,80.77
2017-04-08T05:07:57.325Z,80.02
2017-04-08T05:08:55.189Z,81.57
2017-04-08T05:09:53.003Z,81.83
2017-04-08T05:10:50.979Z,82.09
2017-04-08T05:11:48.804Z,81.55
2017-04-08T05:12:46.724Z,79.05
2017-04-08T05:13:44.686Z,81.30
2017-04-08T05:14:42.510Z,81.75
2017-04-08T05:15:40.347Z,82.23
2017-04-08T05:16:38.284Z,82.99
2017-04-08T05:17:36.143Z,82.47
2017-04-08T05:18:33.985Z,80.50
2017-04-08T05:19:31.936Z,81.59
2017-04-08T05:20:29.763Z,77.90
2017-04-08T05:21:27.593Z,80.80
2017-04-08T05:22:25.594Z,80.35
2017-04-08T05:23:23.455Z,76.73
2017-04-08T05:24:21.308Z,78.77
2017-04-08T05:25:19.153Z,77.89
2017-04-08T05:26:17.013Z,79.84
2017-04-08T05:27:14.944Z,76.65
2017-04-08T05:28:12.765Z,76.84
2017-04-08T05:29:10.700Z,75.78
2017-04-08T05:30:08.590Z,75.32
2017-04-08T05:31:06.455Z,74.69
2017-04-08T05:32:04.376Z,74.37
2017-04-08T05:33:02.193Z,74.19
2017-04-08T05:34:00.111Z,74.46
2017-04-08T05:34:57.938Z,74.72
2017-04-08T05:35:55.834Z,74.65
2017-04-08T05:36:53.638Z,74.42
2017-04-08T05:37:51.936Z,74.19
2017-04-08T05:38:49.757Z,77.62
2017-04-08T05:39:47.577Z,75.82
2017-04-08T05:40:45.463Z,77.17
2017-04-08T05:41:43.261Z,80.55
2017-04-08T05:42:41.101Z,80.72
2017-04-08T05:43:38.961Z,79.12
2017-04-08T05:44:36.866Z,76.57
2017-04-08T05:45:34.701Z,79.25
2017-04-08T05:46:32.539Z,79.72
2017-04-08T05:47:30.420Z,76.33
2017-04-08T05:48:28.290Z,78.90
2017-04-08T05:49:26.261Z,78.23
2017-04-08T05:50:24.095Z,75.80
2017-04-08T05:51:22.006Z,76.19
2017-04-08T05:52:20.592Z,75.20
2017-04-08T05:53:18.446Z,76.34
2017-04-08T05:54:16.310Z,75.47
2017-04-08T05:55:14.172Z,76.66
2017-04-08T05:56:12.163Z,77.71
2017-04-08T05:57:09.996Z,75.92
2017-04-08T05:58:07.847Z,75.17
2017-04-08T05:59:05.740Z,77.40
2017-04-08T06:00:03.611Z,77.66
2017-04-08T06:01:01.490Z,79.68
2017-04-08T06:01:59.514Z,80.59
2017-04-08T06:02:57.412Z,78.55
2017-04-08T06:03:55.292Z,78.00
2017-04-08T06:04:53.097Z,77.05
2017-04-08T06:05:50.948Z,77.61
2017-04-08T06:06:48.783Z,75.70
2017-04-08T06:07:46.676Z,74.75
2017-04-08T06:08:44.487Z,77.64
2017-04-08T06:09:42.522Z,78.04
2017-04-08T06:10:40.413Z,76.11
2017-04-08T06:11:38.273Z,77.68
2017-04-08T06:12:37.297Z,77.29
2017-04-08T06:13:35.151Z,77.52
2017-04-08T06:14:33.081Z,77.86
2017-04-08T06:15:30.922Z,76.59
2017-04-08T06:16:28.797Z,78.07
2017-04-08T06:17:26.646Z,77.99
2017-04-08T06:18:24.533Z,76.45
2017-04-08T06:19:22.411Z,77.60
2017-04-08T06:20:20.256Z,78.38
2017-04-08T06:21:18.115Z,78.33
2017-04-08T06:22:15.948Z,76.92
2017-04-08T06:23:13.830Z,78.10
2017-04-08T06:24:11.680Z,77.95
2017-04-08T06:25:09.467Z,75.53
2017-04-08T06:26:07.310Z,75.97
2017-04-08T06:27:05.225Z,76.01
2017-04-08T06:28:03.098Z,76.60
2017-04-08T06:29:00.949Z,74.99
2017-04-08T06:29:58.872Z,76.82
2017-04-08T06:30:56.703Z,76.44
2017-04-08T06:31:54.591Z,76.50
2017-04-08T06:32:53.829Z,76.28
2017-04-08T06:33:51.696Z,75.18
2017-04-08T06:34:49.528Z,77.49
2017-04-08T06:35:47.389Z,77.38
2017-04-08T06:36:45.294Z,76.12
2017-04-08T06:37:43.132Z,78.02
2017-04-08T06:38:40.988Z,78.37
2017-04-08T06:39:38.837Z,77.58
2017-04-08T06:40:36.753Z,77.24
2017-04-08T06:41:34.617Z,77.06
2017-04-08T06:42:32.545Z,76.29
2017-04-08T06:43:30.512Z,77.57
2017-04-08T06:44:28.381Z,77.03
2017-04-08T06:45:26.268Z,77.04
2017-04-08T06:46:24.147Z,76.86
2017-04-08T06:47:22.053Z,76.89
2017-04-08T06:48:19.875Z,76.64
2017-04-08T06:49:17.740Z,75.53
2017-04-08T06:50:15.573Z,74.22
2017-04-08T06:51:13.472Z,75.67
2017-04-08T06:52:11.376Z,75.55
2017-04-08T06:53:09.213Z,76.36
2017-04-08T06:54:07.197Z,76.19
2017-04-08T06:55:05.118Z,75.32
2017-04-08T06:56:03.048Z,76.83
2017-04-08T06:57:00.896Z,77.47
2017-04-08T06:57:58.754Z,75.59
2017-04-08T06:58:56.612Z,76.98
2017-04-08T06:59:54.526Z,76.83
2017-04-08T07:00:52.393Z,77.53
2017-04-08T07:01:50.264Z,76.27
2017-04-08T07:02:50.212Z,77.16
2017-04-08T07:03:48.202Z,76.17
2017-04-08T07:04:46.044Z,74.75
2017-04-08T07:05:43.966Z,74.58
2017-04-08T07:06:41.834Z,75.73
2017-04-08T07:07:39.656Z,76.41
2017-04-08T07:08:37.524Z,76.71
2017-04-08T07:09:35.371Z,76.48
2017-04-08T07:10:33.222Z,75.58
2017-04-08T07:11:31.105Z,75.66
2017-04-08T07:12:29.009Z,76.22
2017-04-08T07:13:26.840Z,75.59
2017-04-08T07:14:24.703Z,75.77
2017-04-08T07:15:23.407Z,75.15
2017-04-08T07:16:21.238Z,75.78
2017-04-08T07:17:19.196Z,75.72
2017-04-08T07:18:17.076Z,75.02
2017-04-08T07:19:14.912Z,75.33
2017-04-08T07:20:12.846Z,75.28
2017-04-08T07:21:10.732Z,74.99
2017-04-08T07:22:08.546Z,74.91
2017-04-08T07:23:06.395Z,74.67
2017-04-08T07:24:04.315Z,75.24
2017-04-08T07:25:02.185Z,75.53
2017-04-08T07:26:00.036Z,75.07
2017-04-08T07:26:58.043Z,74.52
2017-04-08T07:27:55.874Z,74.40
2017-04-08T07:28:53.811Z,73.99
2017-04-08T07:29:51.663Z,73.66
2017-04-08T07:30:49.612Z,74.66
2017-04-08T07:31:47.460Z,73.68
2017-04-08T07:32:45.371Z,74.56
2017-04-08T07:33:43.249Z,74.69
2017-04-08T07:34:41.087Z,75.39
2017-04-08T07:35:38.918Z,75.28
2017-04-08T07:36:36.752Z,74.56
2017-04-08T07:37:34.713Z,73.93
2017-04-08T07:38:32.609Z,74.16
2017-04-08T07:39:30.425Z,74.69
2017-04-08T07:40:28.322Z,73.76
2017-04-08T07:41:26.153Z,73.56
2017-04-08T07:42:24.020Z,75.12
2017-04-08T07:43:21.916Z,74.58
2017-04-08T07:44:19.792Z,73.66
2017-04-08T07:45:17.751Z,73.88
2017-04-08T07:46:15.594Z,73.97
2017-04-08T07:47:13.463Z,74.31
2017-04-08T07:48:11.309Z,74.35
2017-04-08T07:49:09.173Z,73.69
2017-04-08T07:50:07.108Z,74.20
2017-04-08T07:51:04.972Z,75.22
2017-04-08T07:52:02.955Z,73.85
2017-04-08T07:53:00.828Z,73.72
2017-04-08T07:53:58.681Z,73.39
2017-04-08T07:54:57.245Z,73.62
2017-04-08T07:55:55.140Z,74.38
2017-04-08T07:56:52.973Z,73.39
2017-04-08T07:57:50.776Z,74.21
2017-04-08T07:58:48.659Z,74.30
2017-04-08T07:59:46.463Z,73.57
2017-04-08T08:00:44.310Z,73.73
2017-04-08T08:01:42.140Z,73.76
2017-04-08T08:02:40.038Z,74.02
2017-04-08T08:03:37.841Z,73.96
2017-04-08T08:04:35.784Z,73.59
2017-04-08T08:05:33.612Z,73.74
2017-04-08T08:06:31.497Z,73.38
2017-04-08T08:07:29.391Z,73.52
2017-04-08T08:08:27.240Z,72.70
2017-04-08T08:09:25.208Z,72.34
2017-04-08T08:10:23.033Z,73.04
2017-04-08T08:11:20.951Z,73.07
2017-04-08T08:12:18.851Z,72.58
2017-04-08T08:13:16.727Z,71.43
2017-04-08T08:14:14.588Z,72.30
2017-04-08T08:15:12.416Z,72.03
2017-04-08T08:16:10.312Z,72.06
2017-04-08T08:17:08.144Z,72.01
2017-04-08T08:18:06.091Z,71.80
2017-04-08T08:19:03.978Z,71.84
2017-04-08T08:20:01.809Z,72.18
2017-04-08T08:20:59.732Z,71.93
2017-04-08T08:21:57.622Z,72.05
2017-04-08T08:22:55.511Z,72.44
2017-04-08T08:23:53.327Z,71.18
2017-04-08T08:24:51.272Z,71.20
2017-04-08T08:25:49.158Z,70.43
2017-04-08T08:26:47.054Z,70.46
2017-04-08T08:27:44.889Z,71.17
2017-04-08T08:28:42.720Z,70.96
2017-04-08T08:29:40.669Z,70.75
2017-04-08T08:30:38.509Z,70.87
2017-04-08T08:31:36.484Z,70.50
2017-04-08T08:32:34.383Z,70.18
2017-04-08T08:33:32.240Z,69.68
2017-04-08T08:34:30.133Z,68.87
2017-04-08T08:35:27.972Z,68.52
2017-04-08T08:36:25.918Z,68.70
2017-04-08T08:37:23.786Z,68.74
2017-04-08T08:38:21.723Z,67.79
2017-04-08T08:39:19.560Z,66.91
2017-04-08T08:40:17.419Z,67.65
2017-04-08T08:41:15.314Z,66.96
2017-04-08T08:42:13.161Z,67.23
2017-04-08T08:43:11.143Z,66.76
2017-04-08T08:44:08.989Z,66.61
2017-04-08T08:45:06.816Z,66.65
2017-04-08T08:46:05.573Z,66.74
2017-04-08T08:47:03.410Z,67.75
2017-04-08T08:48:01.260Z,67.39
2017-04-08T08:48:59.144Z,67.44
2017-04-08T08:49:57.041Z,68.04
2017-04-08T08:50:54.901Z,69.43
2017-04-08T08:51:52.796Z,68.19
2017-04-08T08:52:50.656Z,67.93
2017-04-08T08:53:48.507Z,68.56
2017-04-08T08:54:46.461Z,68.88
2017-04-08T08:55:44.276Z,68.87
2017-04-08T08:56:42.179Z,68.18
2017-04-08T08:57:40.076Z,67.04
2017-04-08T08:58:37.883Z,66.20
2017-04-08T08:59:35.765Z,65.02
2017-04-08T09:00:33.608Z,64.21
2017-04-08T09:01:31.535Z,64.29
2017-04-08T09:02:29.385Z,64.91
2017-04-08T09:03:27.336Z,64.47
2017-04-08T09:04:25.176Z,64.11
2017-04-08T09:05:23.022Z,64.43
2017-04-08T09:06:21.044Z,63.84
2017-04-08T09:07:18.912Z,62.40
2017-04-08T09:08:16.800Z,64.07
2017-04-08T09:09:14.592Z,64.08
2017-04-08T09:10:12.569Z,64.67
2017-04-08T09:11:10.444Z,63.76
2017-04-08T09:12:08.298Z,64.60
2017-04-08T09:13:06.156Z,64.86
2017-04-08T09:14:04.047Z,64.06
2017-04-08T09:15:01.931Z,64.47
2017-04-08T09:15:59.733Z,64.31
2017-04-08T09:16:57.750Z,64.22
2017-04-08T09:17:56.229Z,63.88
2017-04-08T09:18:54.084Z,64.69
2017-04-08T09:19:52.089Z,64.29
2017-04-08T09:20:49.935Z,63.77
2017-04-08T09:21:47.862Z,63.34
2017-04-08T09:22:45.724Z,63.82
2017-04-08T09:23:43.600Z,63.37
2017-04-08T09:24:41.508Z,63.19
2017-04-08T09:25:39.408Z,63.72
2017-04-08T09:26:37.329Z,63.86
2017-04-08T09:27:35.207Z,62.28
2017-04-08T09:28:33.029Z,61.54
2017-04-08T09:29:30.893Z,59.81
2017-04-08T09:30:28.747Z,60.02
2017-04-08T09:31:26.683Z,58.18
2017-04-08T09:32:24.553Z,59.26
2017-04-08T09:33:22.459Z,58.60
2017-04-08T09:34:20.345Z,59.71
2017-04-08T09:35:18.236Z,59.03
2017-04-08T09:36:16.161Z,58.73
2017-04-08T09:37:13.997Z,58.78
2017-04-08T09:38:11.899Z,59.33
2017-04-08T09:39:10.769Z,57.36
2017-04-08T09:40:08.632Z,58.58
2017-04-08T09:41:06.426Z,58.70
2017-04-08T09:42:04.257Z,58.20
2017-04-08T09:43:02.089Z,56.06
2017-04-08T09:43:59.996Z,54.16
2017-04-08T09:44:59.596Z,55.51
2017-04-08T09:45:57.428Z,56.19
2017-04-08T09:46:55.311Z,54.72
2017-04-08T09:47:53.149Z,55.61
2017-04-08T09:48:50.998Z,55.96
2017-04-08T09:49:48.860Z,54.43
2017-04-08T09:50:46.724Z,54.57
2017-04-08T09:51:44.624Z,55.52
2017-04-08T09:52:42.462Z,54.42
2017-04-08T09:53:40.376Z,54.60
2017-04-08T09:54:38.222Z,55.59
2017-04-08T09:55:36.048Z,54.47
2017-04-08T09:56:33.881Z,56.35
2017-04-08T09:57:31.752Z,55.87
2017-04-08T09:58:29.560Z,53.17
2017-04-08T09:59:27.450Z,54.00
2017-04-08T10:00:25.399Z,54.85
2017-04-08T10:01:24.436Z,56.15
2017-04-08T10:02:22.466Z,57.12
2017-04-08T10:03:20.303Z,57.58
2017-04-08T10:04:18.255Z,59.13
2017-04-08T10:05:16.103Z,59.88
2017-04-08T10:06:14.036Z,59.57
2017-04-08T10:07:11.907Z,59.91
2017-04-08T10:08:09.761Z,59.82
2017-04-08T10:09:07.663Z,60.16
2017-04-08T10:10:05.510Z,60.53
2017-04-08T10:11:03.404Z,60.00
2017-04-08T10:12:01.218Z,59.73
2017-04-08T10:12:59.152Z,60.15
2017-04-08T10:13:57.044Z,59.36
2017-04-08T10:14:54.924Z,59.21
2017-04-08T10:15:52.777Z,59.14
2017-04-08T10:16:50.662Z,59.22
2017-04-08T10:17:48.601Z,59.23
2017-04-08T10:18:46.464Z,59.27
2017-04-08T10:19:44.337Z,58.63
2017-04-08T10:20:42.224Z,58.16
2017-04-08T10:21:40.088Z,59.09
2017-04-08T10:22:38.005Z,58.38
2017-04-08T10:23:35.938Z,59.05
2017-04-08T10:24:33.803Z,59.46
2017-04-08T10:25:31.599Z,59.29
2017-04-08T10:26:29.503Z,59.24
2017-04-08T10:27:27.349Z,58.85
2017-04-08T10:28:25.322Z,59.15
2017-04-08T10:29:23.231Z,59.12
2017-04-08T10:30:21.152Z,58.76
2017-04-08T10:31:19.023Z,59.61
2017-04-08T10:32:16.904Z,57.87
2017-04-08T10:33:14.772Z,58.25
2017-04-08T10:34:12.648Z,57.66
2017-04-08T10:35:10.597Z,57.46
2017-04-08T10:36:08.452Z,58.19
2017-04-08T10:37:06.241Z,57.33
2017-04-08T10:38:04.144Z,58.14
2017-04-08T10:39:01.977Z,57.41
2017-04-08T10:39:59.905Z,56.40
2017-04-08T10:40:57.766Z,57.27
2017-04-08T10:41:55.726Z,55.54
2017-04-08T10:42:53.636Z,55.96
2017-04-08T10:43:51.511Z,53.50
2017-04-08T10:44:49.420Z,55.46
2017-04-08T10:45:47.395Z,55.38
2017-04-08T10:46:45.310Z,55.27
2017-04-08T10:47:43.144Z,54.72
2017-04-08T10:48:41.011Z,54.78
2017-04-08T10:49:39.280Z,55.67
2017-04-08T10:50:37.175Z,55.66
2017-04-08T10:51:34.969Z,55.97
2017-04-08T10:52:32.784Z,56.21
2017-04-08T10:53:31.519Z,56.78
2017-04-08T10:54:29.339Z,56.73
2017-04-08T10:55:27.206Z,57.17
2017-04-08T10:56:25.065Z,55.91
2017-04-08T10:57:22.888Z,57.67
2017-04-08T10:58:20.782Z,57.29
2017-04-08T10:59:18.593Z,56.48
2017-04-08T11:00:16.513Z,54.35
2017-04-08T11:01:14.326Z,56.62
2017-04-08T11:02:12.179Z,56.36
2017-04-08T11:03:10.068Z,55.93
2017-04-08T11:04:07.869Z,54.87
2017-04-08T11:05:05.723Z,54.18
2017-04-08T11:06:03.525Z,53.33
2017-04-08T11:07:01.456Z,53.34
2017-04-08T11:07:59.323Z,54.31
2017-04-08T11:08:57.539Z,53.62
2017-04-08T11:09:57.209Z,54.98
2017-04-08T11:10:55.079Z,52.60
2017-04-08T11:11:52.903Z,52.90
2017-04-08T11:12:50.731Z,53.21
2017-04-08T11:13:48.529Z,53.25
2017-04-08T11:14:46.524Z,51.82
2017-04-08T11:15:44.455Z,52.96
2017-04-08T11:16:42.296Z,54.21
2017-04-08T11:17:40.233Z,54.33
2017-04-08T11:18:38.059Z,53.16
2017-04-08T11:19:35.963Z,54.51
2017-04-08T11:20:33.815Z,53.24
2017-04-08T11:21:31.768Z,52.93
2017-04-08T11:22:29.632Z,52.61
2017-04-08T11:23:27.444Z,50.99
2017-04-08T11:24:25.391Z,49.42
2017-04-08T11:25:23.176Z,50.08
2017-04-08T11:26:21.265Z,50.10
2017-04-08T11:27:19.108Z,51.93
2017-04-08T11:28:16.961Z,51.18
2017-04-08T11:29:14.832Z,53.10
2017-04-08T11:30:12.704Z,53.17
2017-04-08T11:31:10.623Z,53.37
2017-04-08T11:32:08.498Z,53.84
2017-04-08T11:33:06.389Z,53.84
2017-04-08T11:34:04.257Z,54.63
2017-04-08T11:35:02.141Z,55.45
2017-04-08T11:36:00.033Z,53.56
2017-04-08T11:36:57.832Z,53.80
2017-04-08T11:37:55.809Z,52.87
2017-04-08T11:38:53.681Z,53.68
2017-04-08T11:39:51.666Z,54.59
2017-04-08T11:40:49.531Z,54.61
2017-04-08T11:41:47.416Z,54.32
2017-04-08T11:42:45.336Z,54.68
2017-04-08T11:43:43.180Z,54.14
2017-04-08T11:44:41.057Z,54.76
2017-04-08T11:45:38.911Z,54.43
2017-04-08T11:46:36.822Z,54.21
2017-04-08T11:47:34.644Z,53.99
2017-04-08T11:48:32.564Z,54.19
2017-04-08T11:49:30.721Z,54.52
2017-04-08T11:50:28.540Z,53.37
2017-04-08T11:51:26.388Z,53.60
2017-04-08T11:52:24.234Z,52.65
2017-04-08T11:53:22.100Z,53.72
2017-04-08T11:54:20.545Z,53.76
2017-04-08T11:55:18.367Z,53.74
2017-04-08T11:56:17.641Z,54.47
2017-04-08T11:57:15.585Z,54.12
2017-04-08T11:58:13.438Z,52.25
2017-04-08T11:59:11.379Z,53.89
2017-04-08T12:00:09.241Z,52.92
2017-04-08T12:01:07.201Z,52.35
2017-04-08T12:02:05.056Z,50.89
2017-04-08T12:03:03.040Z,51.20
2017-04-08T12:04:00.933Z,51.83
2017-04-08T12:04:58.753Z,52.53
2017-04-08T12:05:56.588Z,52.29
2017-04-08T12:06:54.381Z,51.80
2017-04-08T12:07:52.308Z,51.98
2017-04-08T12:08:50.151Z,52.90
2017-04-08T12:09:48.060Z,53.61
2017-04-08T12:10:45.961Z,53.54
2017-04-08T12:11:43.812Z,51.95
2017-04-08T12:12:41.702Z,53.69
2017-04-08T12:13:39.567Z,52.02
2017-04-08T12:14:37.443Z,52.52
2017-04-08T12:15:35.279Z,52.62
2017-04-08T12:16:33.232Z,50.80
2017-04-08T12:17:31.151Z,52.54
2017-04-08T12:18:29.036Z,52.33
2017-04-08T12:19:26.913Z,52.61
2017-04-08T12:20:24.745Z,51.80
2017-04-08T12:21:22.649Z,51.60
2017-04-08T12:22:21.627Z,51.22
2017-04-08T12:23:19.466Z,50.98
2017-04-08T12:24:17.268Z,51.05
2017-04-08T12:25:15.112Z,50.47
2017-04-08T12:26:14.485Z,49.97
2017-04-08T12:27:12.389Z,51.10